< Typhoon 200508 2005 Season Typhoon 200510 >
Typhoon 200509 (MATSA)
General InformationTrack Information on Google MapsDetailed Wind InformationAccess Analytics MapList of All Images || NewsDisaster Info.WeblogTrackbackTyphoon FrontResourceGoogle EarthGE AnimationAtom FeedGeoJSON
Detalied Best Track (Time Zone = UTC)
Year Month Day Hour Lat. Long. Pressure (hPa) Wind (kt) Class Image Chart
2005 7 30 12 9.0 137.9 1002 0 2 Image Chart
2005 7 30 18 10.0 136.9 1000 0 2 Image Chart
2005 7 31 00 10.5 136.0 1000 0 2 Image Chart
2005 7 31 06 11.1 134.9 1000 0 2 Image Chart
2005 7 31 12 11.8 133.8 998 35 3 Image Chart
2005 7 31 18 12.6 133.0 998 35 3 Image Chart
2005 8 1 00 13.7 132.4 994 40 3 Image Chart
2005 8 1 06 14.5 131.7 992 40 3 Image Chart
2005 8 1 12 15.5 130.5 990 45 3 Image Chart
2005 8 1 18 16.1 129.8 985 50 4 Image Chart
2005 8 2 00 17.0 129.3 980 55 4 Image Chart
2005 8 2 06 18.0 128.6 980 60 4 Image Chart
2005 8 2 12 19.0 128.2 975 65 5 Image Chart
2005 8 2 18 20.0 127.3 970 70 5 Image Chart
2005 8 3 00 20.7 126.4 965 75 5 Image Chart
2005 8 3 06 21.1 126.1 960 75 5 Image Chart
2005 8 3 09 21.4 125.9 960 75 5 Image Chart
2005 8 3 12 21.8 125.7 960 75 5 Image Chart
2005 8 3 15 22.1 125.5 960 75 5 Image Chart
2005 8 3 18 22.4 125.3 955 80 5 Image Chart
2005 8 3 21 22.8 125.1 955 80 5 Image Chart
2005 8 4 00 23.1 124.9 955 80 5 Image Chart
2005 8 4 03 23.5 124.7 955 80 5 Image Chart
2005 8 4 06 23.9 124.5 955 80 5 Image Chart
2005 8 4 09 24.1 124.4 955 80 5 Image Chart
2005 8 4 10 24.3 124.3 955 80 5 Image Chart
2005 8 4 12 24.6 124.2 955 80 5 Image Chart
2005 8 4 15 24.9 123.9 955 80 5 Image Chart
2005 8 4 18 25.2 123.7 950 80 5 Image Chart
2005 8 4 21 25.5 123.5 950 80 5 Image Chart
2005 8 5 00 25.6 123.4 955 80 5 Image Chart
2005 8 5 03 26.2 123.3 955 80 5 Image Chart
2005 8 5 06 26.7 123.1 960 75 5 Image Chart
2005 8 5 12 27.4 122.2 965 70 5 Image Chart
2005 8 5 18 28.1 121.6 970 65 5 Image Chart
2005 8 6 00 28.5 121.1 975 60 4 Image Chart
2005 8 6 06 29.2 120.4 985 55 4 Image Chart
2005 8 6 12 29.7 119.8 985 50 4 Image Chart
2005 8 6 18 30.3 118.9 990 45 3 Image Chart
2005 8 7 00 30.7 118.4 992 40 3 Image Chart
2005 8 7 06 31.8 118.9 994 40 3 Image Chart
2005 8 7 12 33.0 119.0 994 0 2 Image Chart
2005 8 7 18 34.7 119.3 996 0 2 Image Chart
2005 8 8 00 36.2 119.3 996 0 2 Image Chart
2005 8 8 06 36.7 119.4 992 0 6 Image Chart
2005 8 8 12 37.3 119.7 994 0 6 Image Chart
2005 8 8 18 38.3 120.2 994 0 6 Image Chart
2005 8 9 00 39.2 121.6 998 0 6 Image Chart
2005 8 9 06 40.2 122.6 998 0 6 Image Chart
Japan Meteorological Agency Best Track Data | Correction Date : 2005-12-19
< Typhoon 200508 2005 Season Typhoon 200510 >

Help